sensor_id;sensor_type;location;lat;lon;timestamp;P1;P2;P0
29460;PMS7003;16428;47.836;35.106;2023-11-21T00:00:36;13.25;13.25;11.00
29460;PMS7003;16428;47.836;35.106;2023-11-21T00:03:03;11.25;10.25;8.25
29460;PMS7003;16428;47.836;35.106;2023-11-21T00:05:31;9.25;9.25;7.50
29460;PMS7003;16428;47.836;35.106;2023-11-21T00:07:58;10.00;10.00;7.50
29460;PMS7003;16428;47.836;35.106;2023-11-21T00:10:26;12.25;9.00;7.00
29460;PMS7003;16428;47.836;35.106;2023-11-21T00:13:08;9.00;7.00;5.25
29460;PMS7003;16428;47.836;35.106;2023-11-21T00:15:39;10.00;7.75;5.00
29460;PMS7003;16428;47.836;35.106;2023-11-21T00:18:07;9.25;9.25;7.25
29460;PMS7003;16428;47.836;35.106;2023-11-21T00:20:34;11.50;8.75;8.00
29460;PMS7003;16428;47.836;35.106;2023-11-21T00:23:01;7.75;7.75;6.00
29460;PMS7003;16428;47.836;35.106;2023-11-21T00:25:29;7.00;7.00;6.75
29460;PMS7003;16428;47.836;35.106;2023-11-21T00:27:58;11.25;10.75;8.75
29460;PMS7003;16428;47.836;35.106;2023-11-21T00:30:26;7.00;7.00;7.00
29460;PMS7003;16428;47.836;35.106;2023-11-21T00:32:53;8.00;7.00;4.25
29460;PMS7003;16428;47.836;35.106;2023-11-21T00:35:21;10.75;10.75;9.00
29460;PMS7003;16428;47.836;35.106;2023-11-21T00:37:48;10.00;8.00;7.50
29460;PMS7003;16428;47.836;35.106;2023-11-21T00:40:16;8.00;8.00;6.50
29460;PMS7003;16428;47.836;35.106;2023-11-21T00:42:46;13.75;12.25;9.00
29460;PMS7003;16428;47.836;35.106;2023-11-21T00:45:14;8.75;7.75;6.50
29460;PMS7003;16428;47.836;35.106;2023-11-21T00:47:41;7.75;7.75;7.00
29460;PMS7003;16428;47.836;35.106;2023-11-21T00:50:09;11.00;11.00;9.00
29460;PMS7003;16428;47.836;35.106;2023-11-21T00:52:36;10.00;8.75;8.00
29460;PMS7003;16428;47.836;35.106;2023-11-21T00:55:04;8.00;7.50;6.75
29460;PMS7003;16428;47.836;35.106;2023-11-21T00:57:34;11.00;7.25;5.25
29460;PMS7003;16428;47.836;35.106;2023-11-21T01:00:02;20.75;9.25;7.50
29460;PMS7003;16428;47.836;35.106;2023-11-21T01:02:34;12.50;10.50;8.75
29460;PMS7003;16428;47.836;35.106;2023-11-21T01:05:03;8.25;8.25;7.25
29460;PMS7003;16428;47.836;35.106;2023-11-21T01:07:30;10.50;6.50;5.25
29460;PMS7003;16428;47.836;35.106;2023-11-21T01:09:57;14.25;13.25;10.75
29460;PMS7003;16428;47.836;35.106;2023-11-21T01:12:24;9.75;8.75;7.25
29460;PMS7003;16428;47.836;35.106;2023-11-21T01:14:52;6.50;6.50;4.25
29460;PMS7003;16428;47.836;35.106;2023-11-21T01:17:19;12.25;12.00;11.00
29460;PMS7003;16428;47.836;35.106;2023-11-21T01:19:49;11.25;9.00;7.25
29460;PMS7003;16428;47.836;35.106;2023-11-21T01:22:16;16.00;16.00;10.00
29460;PMS7003;16428;47.836;35.106;2023-11-21T01:24:44;9.50;9.50;7.00
29460;PMS7003;16428;47.836;35.106;2023-11-21T01:27:11;8.25;5.50;4.25
29460;PMS7003;16428;47.836;35.106;2023-11-21T01:29:39;16.25;14.75;11.25
29460;PMS7003;16428;47.836;35.106;2023-11-21T01:32:06;17.75;12.50;9.00
29460;PMS7003;16428;47.836;35.106;2023-11-21T01:34:34;10.50;10.50;9.00
29460;PMS7003;16428;47.836;35.106;2023-11-21T01:37:02;13.25;11.75;9.75
29460;PMS7003;16428;47.836;35.106;2023-11-21T01:39:31;15.50;14.50;11.25
29460;PMS7003;16428;47.836;35.106;2023-11-21T01:41:58;14.25;14.25;9.50
29460;PMS7003;16428;47.836;35.106;2023-11-21T01:44:25;21.50;16.75;12.50
29460;PMS7003;16428;47.836;35.106;2023-11-21T01:46:52;20.00;18.25;14.75
29460;PMS7003;16428;47.836;35.106;2023-11-21T01:49:20;10.25;10.25;9.00
29460;PMS7003;16428;47.836;35.106;2023-11-21T01:51:48;15.50;13.75;10.50
29460;PMS7003;16428;47.836;35.106;2023-11-21T01:54:16;24.00;18.75;17.00
29460;PMS7003;16428;47.836;35.106;2023-11-21T01:56:45;17.50;16.00;13.00
29460;PMS7003;16428;47.836;35.106;2023-11-21T01:59:20;28.25;26.25;17.50
29460;PMS7003;16428;47.836;35.106;2023-11-21T02:01:49;18.00;15.75;12.50
29460;PMS7003;16428;47.836;35.106;2023-11-21T02:04:17;26.75;20.00;15.50
29460;PMS7003;16428;47.836;35.106;2023-11-21T02:06:45;21.00;18.50;15.25
29460;PMS7003;16428;47.836;35.106;2023-11-21T02:09:12;15.75;11.50;7.25
29460;PMS7003;16428;47.836;35.106;2023-11-21T02:11:42;24.50;19.00;13.75
29460;PMS7003;16428;47.836;35.106;2023-11-21T02:14:09;20.00;16.50;11.25
29460;PMS7003;16428;47.836;35.106;2023-11-21T02:16:37;22.50;19.75;10.00
29460;PMS7003;16428;47.836;35.106;2023-11-21T02:19:04;25.50;23.75;17.25
29460;PMS7003;16428;47.836;35.106;2023-11-21T02:21:35;15.25;15.00;10.75
29460;PMS7003;16428;47.836;35.106;2023-11-21T02:24:07;26.25;25.00;17.25
29460;PMS7003;16428;47.836;35.106;2023-11-21T02:26:34;24.75;22.50;18.00
29460;PMS7003;16428;47.836;35.106;2023-11-21T02:29:02;19.25;19.25;14.75
29460;PMS7003;16428;47.836;35.106;2023-11-21T02:31:31;22.25;21.75;14.75
29460;PMS7003;16428;47.836;35.106;2023-11-21T02:33:59;16.25;15.50;11.00
29460;PMS7003;16428;47.836;35.106;2023-11-21T02:36:26;22.50;19.75;13.75
29460;PMS7003;16428;47.836;35.106;2023-11-21T02:38:53;20.00;15.50;11.50
29460;PMS7003;16428;47.836;35.106;2023-11-21T02:41:20;20.00;18.00;14.25
29460;PMS7003;16428;47.836;35.106;2023-11-21T02:43:47;20.00;18.50;15.50
29460;PMS7003;16428;47.836;35.106;2023-11-21T02:46:14;18.50;18.50;11.50
29460;PMS7003;16428;47.836;35.106;2023-11-21T02:48:42;22.00;20.50;14.50
29460;PMS7003;16428;47.836;35.106;2023-11-21T02:51:09;15.25;14.75;12.50
29460;PMS7003;16428;47.836;35.106;2023-11-21T02:53:36;22.25;18.00;15.75
29460;PMS7003;16428;47.836;35.106;2023-11-21T02:56:05;15.50;14.50;11.00
29460;PMS7003;16428;47.836;35.106;2023-11-21T02:58:32;20.00;20.00;13.50
29460;PMS7003;16428;47.836;35.106;2023-11-21T03:01:00;20.25;16.75;13.25
29460;PMS7003;16428;47.836;35.106;2023-11-21T03:03:27;27.25;23.00;16.75
29460;PMS7003;16428;47.836;35.106;2023-11-21T03:05:55;23.75;22.00;17.00
29460;PMS7003;16428;47.836;35.106;2023-11-21T03:08:22;23.75;19.25;14.75
29460;PMS7003;16428;47.836;35.106;2023-11-21T03:10:49;27.50;20.50;16.25
29460;PMS7003;16428;47.836;35.106;2023-11-21T03:13:16;23.00;22.50;18.25
29460;PMS7003;16428;47.836;35.106;2023-11-21T03:15:43;20.75;17.75;15.00
29460;PMS7003;16428;47.836;35.106;2023-11-21T03:18:10;27.50;20.25;15.25
29460;PMS7003;16428;47.836;35.106;2023-11-21T03:20:38;23.25;23.25;15.50
29460;PMS7003;16428;47.836;35.106;2023-11-21T03:23:05;30.75;25.25;19.00
29460;PMS7003;16428;47.836;35.106;2023-11-21T03:25:32;19.25;19.25;15.00
29460;PMS7003;16428;47.836;35.106;2023-11-21T03:27:59;29.25;27.75;18.50
29460;PMS7003;16428;47.836;35.106;2023-11-21T03:30:27;17.75;17.50;14.00
29460;PMS7003;16428;47.836;35.106;2023-11-21T03:32:54;23.50;23.50;19.00
29460;PMS7003;16428;47.836;35.106;2023-11-21T03:35:21;20.00;19.75;16.25
29460;PMS7003;16428;47.836;35.106;2023-11-21T03:37:48;31.00;26.50;20.00
29460;PMS7003;16428;47.836;35.106;2023-11-21T03:40:15;32.75;31.25;21.75
29460;PMS7003;16428;47.836;35.106;2023-11-21T03:42:42;30.00;28.75;20.00
29460;PMS7003;16428;47.836;35.106;2023-11-21T03:45:09;17.00;15.00;9.50
29460;PMS7003;16428;47.836;35.106;2023-11-21T03:47:40;22.75;19.00;15.50
29460;PMS7003;16428;47.836;35.106;2023-11-21T03:50:09;21.75;21.00;15.00
29460;PMS7003;16428;47.836;35.106;2023-11-21T03:52:36;28.75;21.00;15.00
29460;PMS7003;16428;47.836;35.106;2023-11-21T03:55:04;25.50;25.50;20.75
29460;PMS7003;16428;47.836;35.106;2023-11-21T03:57:31;33.75;28.00;19.75
29460;PMS7003;16428;47.836;35.106;2023-11-21T03:59:58;25.25;21.50;17.00
29460;PMS7003;16428;47.836;35.106;2023-11-21T04:02:25;22.25;19.75;14.50
29460;PMS7003;16428;47.836;35.106;2023-11-21T04:04:53;19.75;19.00;15.50
29460;PMS7003;16428;47.836;35.106;2023-11-21T04:07:20;16.50;16.50;12.50
29460;PMS7003;16428;47.836;35.106;2023-11-21T04:09:48;20.25;18.75;15.25
29460;PMS7003;16428;47.836;35.106;2023-11-21T04:12:15;23.50;18.50;13.75
29460;PMS7003;16428;47.836;35.106;2023-11-21T04:14:42;17.25;14.50;10.50
29460;PMS7003;16428;47.836;35.106;2023-11-21T04:17:09;16.00;13.75;10.50
29460;PMS7003;16428;47.836;35.106;2023-11-21T04:19:37;17.25;16.50;12.00
29460;PMS7003;16428;47.836;35.106;2023-11-21T04:22:04;17.00;13.00;10.75
29460;PMS7003;16428;47.836;35.106;2023-11-21T04:24:31;20.25;19.25;14.00
29460;PMS7003;16428;47.836;35.106;2023-11-21T04:26:58;21.25;17.00;13.00
29460;PMS7003;16428;47.836;35.106;2023-11-21T04:29:25;15.75;10.00;6.00
29460;PMS7003;16428;47.836;35.106;2023-11-21T04:31:52;15.00;14.00;10.00
29460;PMS7003;16428;47.836;35.106;2023-11-21T04:34:19;16.00;13.00;9.75
29460;PMS7003;16428;47.836;35.106;2023-11-21T04:36:46;11.50;11.25;7.75
29460;PMS7003;16428;47.836;35.106;2023-11-21T04:39:13;21.75;21.75;15.00
29460;PMS7003;16428;47.836;35.106;2023-11-21T04:41:40;20.75;20.75;13.75
29460;PMS7003;16428;47.836;35.106;2023-11-21T04:44:07;15.25;10.75;9.25
29460;PMS7003;16428;47.836;35.106;2023-11-21T04:46:35;25.00;24.75;18.25
29460;PMS7003;16428;47.836;35.106;2023-11-21T04:49:02;16.25;16.25;13.75
29460;PMS7003;16428;47.836;35.106;2023-11-21T04:51:29;18.00;18.00;14.25
29460;PMS7003;16428;47.836;35.106;2023-11-21T04:53:56;14.25;14.25;12.00
29460;PMS7003;16428;47.836;35.106;2023-11-21T04:56:23;21.75;17.00;13.50
29460;PMS7003;16428;47.836;35.106;2023-11-21T04:58:50;20.00;17.25;13.75
29460;PMS7003;16428;47.836;35.106;2023-11-21T05:01:17;15.50;15.50;13.00
29460;PMS7003;16428;47.836;35.106;2023-11-21T05:03:44;22.75;17.00;13.50
29460;PMS7003;16428;47.836;35.106;2023-11-21T05:06:13;20.25;18.25;13.50
29460;PMS7003;16428;47.836;35.106;2023-11-21T05:08:40;16.75;13.25;9.75
29460;PMS7003;16428;47.836;35.106;2023-11-21T05:11:08;19.75;19.75;14.00
29460;PMS7003;16428;47.836;35.106;2023-11-21T05:13:37;20.50;20.50;16.75
29460;PMS7003;16428;47.836;35.106;2023-11-21T05:16:05;18.50;18.50;15.50
29460;PMS7003;16428;47.836;35.106;2023-11-21T05:18:34;24.75;24.25;18.25
29460;PMS7003;16428;47.836;35.106;2023-11-21T05:21:01;27.25;26.00;19.75
29460;PMS7003;16428;47.836;35.106;2023-11-21T05:23:29;39.33;33.33;21.67
29460;PMS7003;16428;47.836;35.106;2023-11-21T05:25:56;34.00;29.75;20.50
29460;PMS7003;16428;47.836;35.106;2023-11-21T05:28:23;32.25;28.00;20.75
29460;PMS7003;16428;47.836;35.106;2023-11-21T05:30:51;30.50;30.50;21.75
29460;PMS7003;16428;47.836;35.106;2023-11-21T05:33:36;36.33;32.67;24.67
29460;PMS7003;16428;47.836;35.106;2023-11-21T05:36:03;32.33;30.33;22.67
29460;PMS7003;16428;47.836;35.106;2023-11-21T05:38:30;36.00;30.33;21.67
29460;PMS7003;16428;47.836;35.106;2023-11-21T05:40:57;31.25;23.00;18.00
29460;PMS7003;16428;47.836;35.106;2023-11-21T05:43:25;43.00;35.75;24.00
29460;PMS7003;16428;47.836;35.106;2023-11-21T05:45:52;24.33;20.33;13.67
29460;PMS7003;16428;47.836;35.106;2023-11-21T05:48:19;28.25;25.50;19.50
29460;PMS7003;16428;47.836;35.106;2023-11-21T05:50:47;40.00;34.67;23.67
29460;PMS7003;16428;47.836;35.106;2023-11-21T05:53:18;28.75;20.75;17.00
29460;PMS7003;16428;47.836;35.106;2023-11-21T05:55:45;32.75;29.00;20.50
29460;PMS7003;16428;47.836;35.106;2023-11-21T05:58:12;25.50;22.25;16.75
29460;PMS7003;16428;47.836;35.106;2023-11-21T06:00:40;20.25;20.25;16.75
29460;PMS7003;16428;47.836;35.106;2023-11-21T06:03:08;24.00;22.25;17.25
29460;PMS7003;16428;47.836;35.106;2023-11-21T06:05:35;42.67;32.33;22.00
29460;PMS7003;16428;47.836;35.106;2023-11-21T06:08:02;26.50;21.50;15.50
29460;PMS7003;16428;47.836;35.106;2023-11-21T06:10:30;34.00;30.67;22.67
29460;PMS7003;16428;47.836;35.106;2023-11-21T06:12:57;21.25;17.50;12.00
29460;PMS7003;16428;47.836;35.106;2023-11-21T06:15:29;31.00;28.00;20.00
29460;PMS7003;16428;47.836;35.106;2023-11-21T06:17:56;43.50;33.00;24.25
29460;PMS7003;16428;47.836;35.106;2023-11-21T06:20:24;27.50;27.25;21.00
29460;PMS7003;16428;47.836;35.106;2023-11-21T06:22:51;23.50;22.25;16.75
29460;PMS7003;16428;47.836;35.106;2023-11-21T06:25:19;25.75;19.00;16.25
29460;PMS7003;16428;47.836;35.106;2023-11-21T06:27:47;36.75;31.25;21.25
29460;PMS7003;16428;47.836;35.106;2023-11-21T06:30:15;26.50;25.50;18.00
29460;PMS7003;16428;47.836;35.106;2023-11-21T06:32:43;29.00;27.00;18.25
29460;PMS7003;16428;47.836;35.106;2023-11-21T06:35:14;24.25;22.00;15.75
29460;PMS7003;16428;47.836;35.106;2023-11-21T06:37:44;29.25;28.25;18.50
29460;PMS7003;16428;47.836;35.106;2023-11-21T06:40:17;23.75;23.00;17.75
29460;PMS7003;16428;47.836;35.106;2023-11-21T06:42:48;22.50;21.75;16.00
29460;PMS7003;16428;47.836;35.106;2023-11-21T06:45:17;30.00;19.75;15.50
29460;PMS7003;16428;47.836;35.106;2023-11-21T06:47:44;23.75;18.25;15.00
29460;PMS7003;16428;47.836;35.106;2023-11-21T06:50:12;32.50;30.75;20.50
29460;PMS7003;16428;47.836;35.106;2023-11-21T06:52:39;22.75;18.75;14.50
29460;PMS7003;16428;47.836;35.106;2023-11-21T06:55:06;31.50;29.00;20.50
29460;PMS7003;16428;47.836;35.106;2023-11-21T06:57:35;25.75;20.50;16.50
29460;PMS7003;16428;47.836;35.106;2023-11-21T07:00:04;32.00;24.50;19.25
29460;PMS7003;16428;47.836;35.106;2023-11-21T07:02:32;39.50;33.25;23.75
29460;PMS7003;16428;47.836;35.106;2023-11-21T07:04:59;27.50;25.00;20.00
29460;PMS7003;16428;47.836;35.106;2023-11-21T07:07:27;43.67;35.67;24.00
29460;PMS7003;16428;47.836;35.106;2023-11-21T07:09:55;41.67;35.00;23.33
29460;PMS7003;16428;47.836;35.106;2023-11-21T07:12:22;38.25;35.00;24.25
29460;PMS7003;16428;47.836;35.106;2023-11-21T07:14:50;33.00;32.75;21.75
29460;PMS7003;16428;47.836;35.106;2023-11-21T07:17:17;35.75;29.75;20.25
29460;PMS7003;16428;47.836;35.106;2023-11-21T07:19:44;49.00;41.67;27.67
29460;PMS7003;16428;47.836;35.106;2023-11-21T07:22:12;34.00;33.50;23.00
29460;PMS7003;16428;47.836;35.106;2023-11-21T07:24:40;25.75;20.75;18.50
29460;PMS7003;16428;47.836;35.106;2023-11-21T07:27:09;29.75;22.25;17.00
29460;PMS7003;16428;47.836;35.106;2023-11-21T07:29:37;26.50;24.25;19.25
29460;PMS7003;16428;47.836;35.106;2023-11-21T07:32:04;30.25;23.25;15.00
29460;PMS7003;16428;47.836;35.106;2023-11-21T07:34:32;15.00;11.75;11.00
29460;PMS7003;16428;47.836;35.106;2023-11-21T07:36:59;22.00;19.75;14.25
29460;PMS7003;16428;47.836;35.106;2023-11-21T07:39:26;22.75;20.50;18.00
29460;PMS7003;16428;47.836;35.106;2023-11-21T07:41:53;22.25;22.25;16.00
29460;PMS7003;16428;47.836;35.106;2023-11-21T07:44:21;27.50;24.00;18.00
29460;PMS7003;16428;47.836;35.106;2023-11-21T07:46:48;32.50;26.00;19.75
29460;PMS7003;16428;47.836;35.106;2023-11-21T07:49:16;18.75;17.00;10.50
29460;PMS7003;16428;47.836;35.106;2023-11-21T07:51:47;13.50;10.75;9.25
29460;PMS7003;16428;47.836;35.106;2023-11-21T07:54:15;25.50;22.50;18.25
29460;PMS7003;16428;47.836;35.106;2023-11-21T07:56:42;20.00;19.25;14.00
29460;PMS7003;16428;47.836;35.106;2023-11-21T07:59:09;17.00;17.00;13.00
29460;PMS7003;16428;47.836;35.106;2023-11-21T08:01:37;20.50;20.50;13.00
29460;PMS7003;16428;47.836;35.106;2023-11-21T08:04:07;17.75;17.25;13.00
29460;PMS7003;16428;47.836;35.106;2023-11-21T08:06:35;25.50;23.75;17.00
29460;PMS7003;16428;47.836;35.106;2023-11-21T08:09:02;21.25;19.25;13.50
29460;PMS7003;16428;47.836;35.106;2023-11-21T08:11:29;21.00;20.00;14.25
29460;PMS7003;16428;47.836;35.106;2023-11-21T08:13:59;24.75;20.00;15.75
29460;PMS7003;16428;47.836;35.106;2023-11-21T08:16:26;24.25;19.00;14.50
29460;PMS7003;16428;47.836;35.106;2023-11-21T08:18:54;18.25;18.25;12.00
29460;PMS7003;16428;47.836;35.106;2023-11-21T08:21:22;23.50;18.25;13.75
29460;PMS7003;16428;47.836;35.106;2023-11-21T08:23:52;19.25;19.25;16.00
29460;PMS7003;16428;47.836;35.106;2023-11-21T08:26:21;21.50;21.50;17.25
29460;PMS7003;16428;47.836;35.106;2023-11-21T08:28:48;29.25;28.50;20.75
29460;PMS7003;16428;47.836;35.106;2023-11-21T08:31:15;20.25;14.00;11.75
29460;PMS7003;16428;47.836;35.106;2023-11-21T08:33:43;23.50;22.25;16.00
29460;PMS7003;16428;47.836;35.106;2023-11-21T08:36:10;25.50;21.00;15.75
29460;PMS7003;16428;47.836;35.106;2023-11-21T08:38:38;32.75;28.00;18.50
29460;PMS7003;16428;47.836;35.106;2023-11-21T08:41:06;34.25;28.00;23.00
29460;PMS7003;16428;47.836;35.106;2023-11-21T08:43:35;29.25;24.75;17.75
29460;PMS7003;16428;47.836;35.106;2023-11-21T08:46:06;26.75;22.25;16.50
29460;PMS7003;16428;47.836;35.106;2023-11-21T08:48:38;26.75;23.75;18.00
29460;PMS7003;16428;47.836;35.106;2023-11-21T08:51:06;22.75;14.25;13.50
29460;PMS7003;16428;47.836;35.106;2023-11-21T08:53:33;21.25;20.00;15.50
29460;PMS7003;16428;47.836;35.106;2023-11-21T08:56:00;27.50;23.00;14.75
29460;PMS7003;16428;47.836;35.106;2023-11-21T08:58:28;25.00;21.75;17.50
29460;PMS7003;16428;47.836;35.106;2023-11-21T09:00:55;33.25;31.50;21.50
29460;PMS7003;16428;47.836;35.106;2023-11-21T09:03:22;29.00;27.75;22.00
29460;PMS7003;16428;47.836;35.106;2023-11-21T09:05:50;28.25;22.75;17.00
29460;PMS7003;16428;47.836;35.106;2023-11-21T09:08:18;32.75;24.50;18.00
29460;PMS7003;16428;47.836;35.106;2023-11-21T09:10:45;39.00;32.75;22.50
29460;PMS7003;16428;47.836;35.106;2023-11-21T09:13:14;21.25;21.25;16.50
29460;PMS7003;16428;47.836;35.106;2023-11-21T09:15:43;27.25;22.75;16.75
29460;PMS7003;16428;47.836;35.106;2023-11-21T09:18:13;36.50;24.50;19.50
29460;PMS7003;16428;47.836;35.106;2023-11-21T09:20:41;34.00;28.25;19.50
29460;PMS7003;16428;47.836;35.106;2023-11-21T09:23:10;36.00;31.50;21.75
29460;PMS7003;16428;47.836;35.106;2023-11-21T09:25:38;32.50;26.50;18.75
29460;PMS7003;16428;47.836;35.106;2023-11-21T09:28:05;41.75;33.75;23.25
29460;PMS7003;16428;47.836;35.106;2023-11-21T09:30:36;37.00;31.25;22.50
29460;PMS7003;16428;47.836;35.106;2023-11-21T09:33:03;46.25;34.25;22.75
29460;PMS7003;16428;47.836;35.106;2023-11-21T09:35:34;45.33;37.33;25.00
29460;PMS7003;16428;47.836;35.106;2023-11-21T09:38:02;29.00;28.50;21.75
29460;PMS7003;16428;47.836;35.106;2023-11-21T09:40:32;29.75;28.50;23.00
29460;PMS7003;16428;47.836;35.106;2023-11-21T09:42:59;37.25;31.00;20.00
29460;PMS7003;16428;47.836;35.106;2023-11-21T09:45:32;31.25;29.75;20.25
29460;PMS7003;16428;47.836;35.106;2023-11-21T09:48:02;37.00;31.00;22.00
29460;PMS7003;16428;47.836;35.106;2023-11-21T09:50:31;33.25;30.25;20.00
29460;PMS7003;16428;47.836;35.106;2023-11-21T09:53:19;27.75;25.00;16.75
29460;PMS7003;16428;47.836;35.106;2023-11-21T09:55:54;26.00;26.00;17.75
29460;PMS7003;16428;47.836;35.106;2023-11-21T09:58:21;23.00;20.75;17.25
29460;PMS7003;16428;47.836;35.106;2023-11-21T10:00:55;27.25;21.75;17.00
29460;PMS7003;16428;47.836;35.106;2023-11-21T10:03:26;19.25;16.50;12.25
29460;PMS7003;16428;47.836;35.106;2023-11-21T10:05:54;24.00;24.00;16.25
29460;PMS7003;16428;47.836;35.106;2023-11-21T10:08:26;25.25;21.25;14.50
29460;PMS7003;16428;47.836;35.106;2023-11-21T10:11:12;30.00;28.75;20.75
29460;PMS7003;16428;47.836;35.106;2023-11-21T10:13:41;34.50;29.75;21.50
29460;PMS7003;16428;47.836;35.106;2023-11-21T10:16:13;28.50;28.50;20.50
29460;PMS7003;16428;47.836;35.106;2023-11-21T10:18:49;31.50;26.50;19.50
29460;PMS7003;16428;47.836;35.106;2023-11-21T10:21:37;30.50;25.75;17.25
29460;PMS7003;16428;47.836;35.106;2023-11-21T10:24:06;32.25;25.75;18.50
29460;PMS7003;16428;47.836;35.106;2023-11-21T10:26:34;27.75;23.50;17.75
29460;PMS7003;16428;47.836;35.106;2023-11-21T10:29:18;22.75;13.00;8.00
29460;PMS7003;16428;47.836;35.106;2023-11-21T10:31:46;22.25;18.50;13.25
29460;PMS7003;16428;47.836;35.106;2023-11-21T10:34:17;25.25;24.50;18.75
29460;PMS7003;16428;47.836;35.106;2023-11-21T10:36:45;23.25;20.25;15.00
29460;PMS7003;16428;47.836;35.106;2023-11-21T10:39:14;21.25;18.25;13.00
29460;PMS7003;16428;47.836;35.106;2023-11-21T10:41:46;27.00;25.25;17.50
29460;PMS7003;16428;47.836;35.106;2023-11-21T10:44:15;31.75;25.50;18.75
29460;PMS7003;16428;47.836;35.106;2023-11-21T10:46:51;24.50;21.75;15.75
29460;PMS7003;16428;47.836;35.106;2023-11-21T10:49:26;26.75;23.75;17.50
29460;PMS7003;16428;47.836;35.106;2023-11-21T10:51:55;24.50;20.75;14.00
29460;PMS7003;16428;47.836;35.106;2023-11-21T10:54:23;28.00;23.75;14.50
29460;PMS7003;16428;47.836;35.106;2023-11-21T10:57:01;26.50;21.50;17.50
29460;PMS7003;16428;47.836;35.106;2023-11-21T10:59:31;19.75;19.75;16.00
29460;PMS7003;16428;47.836;35.106;2023-11-21T11:01:59;21.25;18.25;13.50
29460;PMS7003;16428;47.836;35.106;2023-11-21T11:04:31;21.50;21.50;14.50
29460;PMS7003;16428;47.836;35.106;2023-11-21T11:07:05;25.75;23.50;15.00
29460;PMS7003;16428;47.836;35.106;2023-11-21T11:09:36;25.00;21.75;13.00
29460;PMS7003;16428;47.836;35.106;2023-11-21T11:12:03;24.50;22.25;17.25
29460;PMS7003;16428;47.836;35.106;2023-11-21T11:14:34;18.50;16.75;14.75
29460;PMS7003;16428;47.836;35.106;2023-11-21T11:17:02;25.50;24.75;18.25
29460;PMS7003;16428;47.836;35.106;2023-11-21T11:19:32;21.00;20.00;15.00
29460;PMS7003;16428;47.836;35.106;2023-11-21T11:22:08;21.75;20.50;15.00
29460;PMS7003;16428;47.836;35.106;2023-11-21T11:27:40;25.00;23.25;17.50
29460;PMS7003;16428;47.836;35.106;2023-11-21T11:35:24;16.75;15.75;12.75
29460;PMS7003;16428;47.836;35.106;2023-11-21T11:38:01;19.75;18.25;13.00
29460;PMS7003;16428;47.836;35.106;2023-11-21T11:40:38;27.75;25.00;18.75
29460;PMS7003;16428;47.836;35.106;2023-11-21T11:43:12;21.25;21.00;16.25
29460;PMS7003;16428;47.836;35.106;2023-11-21T11:45:39;27.25;20.50;17.00
29460;PMS7003;16428;47.836;35.106;2023-11-21T11:48:13;22.00;19.75;16.00
29460;PMS7003;16428;47.836;35.106;2023-11-21T11:53:35;24.25;21.75;17.25
29460;PMS7003;16428;47.836;35.106;2023-11-21T11:56:23;22.00;21.75;16.50
29460;PMS7003;16428;47.836;35.106;2023-11-21T11:58:59;24.00;21.25;17.25
29460;PMS7003;16428;47.836;35.106;2023-11-21T12:01:31;35.25;29.25;22.00
29460;PMS7003;16428;47.836;35.106;2023-11-21T12:07:01;25.00;24.50;17.00
29460;PMS7003;16428;47.836;35.106;2023-11-21T12:09:30;23.25;18.50;12.75
29460;PMS7003;16428;47.836;35.106;2023-11-21T12:11:58;25.50;18.75;13.00
29460;PMS7003;16428;47.836;35.106;2023-11-21T12:14:27;25.25;21.25;16.25
29460;PMS7003;16428;47.836;35.106;2023-11-21T12:16:55;25.50;22.75;17.50
29460;PMS7003;16428;47.836;35.106;2023-11-21T12:19:23;34.50;29.00;20.00
29460;PMS7003;16428;47.836;35.106;2023-11-21T12:21:50;27.50;23.00;17.25
29460;PMS7003;16428;47.836;35.106;2023-11-21T12:24:18;28.50;24.75;21.50
29460;PMS7003;16428;47.836;35.106;2023-11-21T12:26:45;29.25;25.75;18.75
29460;PMS7003;16428;47.836;35.106;2023-11-21T12:29:13;28.75;28.50;22.00
29460;PMS7003;16428;47.836;35.106;2023-11-21T12:31:41;22.00;19.75;15.50
29460;PMS7003;16428;47.836;35.106;2023-11-21T12:34:08;30.75;26.75;19.50
29460;PMS7003;16428;47.836;35.106;2023-11-21T12:36:38;32.00;22.75;15.75
29460;PMS7003;16428;47.836;35.106;2023-11-21T12:39:07;25.75;25.25;20.25
29460;PMS7003;16428;47.836;35.106;2023-11-21T12:41:36;37.75;30.25;22.75
29460;PMS7003;16428;47.836;35.106;2023-11-21T12:44:03;26.50;26.50;19.00
29460;PMS7003;16428;47.836;35.106;2023-11-21T12:46:30;25.50;22.25;14.25
29460;PMS7003;16428;47.836;35.106;2023-11-21T12:49:00;41.25;38.25;26.75
29460;PMS7003;16428;47.836;35.106;2023-11-21T12:51:28;34.25;32.25;23.75
29460;PMS7003;16428;47.836;35.106;2023-11-21T12:53:56;35.25;30.00;22.00
29460;PMS7003;16428;47.836;35.106;2023-11-21T12:56:25;32.50;27.75;20.75
29460;PMS7003;16428;47.836;35.106;2023-11-21T12:58:53;25.00;22.75;18.75
29460;PMS7003;16428;47.836;35.106;2023-11-21T13:01:25;24.25;21.75;17.50
29460;PMS7003;16428;47.836;35.106;2023-11-21T13:03:56;34.75;29.75;22.25
29460;PMS7003;16428;47.836;35.106;2023-11-21T13:06:29;29.75;29.25;22.75
29460;PMS7003;16428;47.836;35.106;2023-11-21T13:09:01;34.75;32.25;21.50
29460;PMS7003;16428;47.836;35.106;2023-11-21T13:11:34;54.33;43.67;31.00
29460;PMS7003;16428;47.836;35.106;2023-11-21T13:14:01;36.50;31.50;20.50
29460;PMS7003;16428;47.836;35.106;2023-11-21T13:16:30;31.00;24.50;18.00
29460;PMS7003;16428;47.836;35.106;2023-11-21T13:18:58;28.50;24.75;18.50
29460;PMS7003;16428;47.836;35.106;2023-11-21T13:21:25;19.00;17.50;9.75
29460;PMS7003;16428;47.836;35.106;2023-11-21T13:23:54;27.75;22.75;19.00
29460;PMS7003;16428;47.836;35.106;2023-11-21T13:26:21;27.25;23.25;18.75
29460;PMS7003;16428;47.836;35.106;2023-11-21T13:28:50;29.00;27.25;18.00
29460;PMS7003;16428;47.836;35.106;2023-11-21T13:31:17;32.25;27.00;21.00
29460;PMS7003;16428;47.836;35.106;2023-11-21T13:33:49;35.25;30.75;21.50
29460;PMS7003;16428;47.836;35.106;2023-11-21T13:36:25;35.00;29.50;20.75
29460;PMS7003;16428;47.836;35.106;2023-11-21T13:38:57;34.75;27.25;20.00
29460;PMS7003;16428;47.836;35.106;2023-11-21T13:41:25;27.00;23.00;16.00
29460;PMS7003;16428;47.836;35.106;2023-11-21T13:43:58;19.25;16.75;14.75
29460;PMS7003;16428;47.836;35.106;2023-11-21T13:46:41;19.50;14.25;9.50
29460;PMS7003;16428;47.836;35.106;2023-11-21T13:49:10;22.00;22.00;16.75
29460;PMS7003;16428;47.836;35.106;2023-11-21T13:51:37;26.25;24.25;19.50
29460;PMS7003;16428;47.836;35.106;2023-11-21T13:54:12;32.50;30.00;21.50
29460;PMS7003;16428;47.836;35.106;2023-11-21T13:56:40;41.25;25.50;19.00
29460;PMS7003;16428;47.836;35.106;2023-11-21T13:59:08;33.00;26.25;19.50